Yvonne K. — PBLX — position and weather

sailwx.info

Track history (hours):
 
Tides and Currents Weather Stations Pressure Air Temp Water Temp Dewpoint Dewpoint Depression Visibility Wind Speed Wind Dir Waves Ship Positions

Yvonne K.

Last reported at 2017-Jul-21 22:10 UTC. Time now 2017-Jul-22 00:37 UTC.
Position N 42°57' E 003°12'.

Length 90 m; draft 3 m.

Type: Cargo ship. MMSI: 244948000.

Date/timePositionNaut miles runAvg speedWind from/ knotsBaromVisibWave heightAir tempDewpointWater temp
2017-Jul-21 22:10N 42°57' E 003°12'511.1
2017-Jul-21 21:43N 42°54' E 003°17'311.0
2017-Jul-21 21:27N 42°52' E 003°20'511.2
2017-Jul-21 21:00N 42°50' E 003°26'1910.3
2017-Jul-21 19:12N 42°38' E 003°46'210.5
2017-Jul-21 18:59N 42°37' E 003°48'610.7
2017-Jul-21 18:23N 42°33' E 003°55'410.7
2017-Jul-21 18:00N 42°30' E 003°59'510.8
2017-Jul-21 17:30N 42°26' E 004°05'510.5
2017-Jul-21 17:01N 42°23' E 004°10'610.6
2017-Jul-21 16:27N 42°19' E 004°16'510.9
2017-Jul-21 16:00N 42°16' E 004°22'611.0
2017-Jul-21 15:29N 42°13' E 004°28'510.4
2017-Jul-21 15:00N 42°09' E 004°33'510.9
2017-Jul-21 14:31N 42°06' E 004°38'510.9
2017-Jul-21 14:00N 42°02' E 004°44'610.8
2017-Jul-21 13:29N 41°59' E 004°50'710.9
2017-Jul-21 12:52N 41°54' E 004°57'510.9
2017-Jul-21 12:24N 41°51' E 005°02'510.1
2017-Jul-21 11:52N 41°48' E 005°07'511.1
2017-Jul-21 11:25N 41°44' E 005°12'610.2
2017-Jul-21 10:48N 41°40' E 005°19'3 8.3
2017-Jul-21 10:29N 41°39' E 005°21'180 4.3
2017-Jul-19 16:25N 39°52' E 008°33'4 0.2
2017-Jul-18 22:26N 39°51' E 008°28'184 9.5
2017-Jul-18 03:06N 41°42' E 005°15'2 9.4
2017-Jul-18 02:50N 41°44' E 005°13'17 9.6
2017-Jul-18 01:06N 41°55' E 004°56'3 9.8
2017-Jul-18 00:51N 41°56' E 004°53'17 9.6
2017-Jul-17 23:06N 42°07' E 004°36'2 9.7
2017-Jul-17 22:51N 42°09' E 004°33'5 9.6
2017-Jul-17 22:22N 42°12' E 004°28'4 9.5
2017-Jul-17 21:54N 42°14' E 004°24'4 9.5
2017-Jul-17 21:30N 42°17' E 004°20'5 9.3
2017-Jul-17 20:58N 42°20' E 004°15'8 9.4
2017-Jul-17 20:08N 42°25' E 004°07'2 9.6
2017-Jul-17 19:54N 42°26' E 004°04'4 9.6
2017-Jul-17 19:27N 42°29' E 003°60'5 9.6
2017-Jul-17 18:56N 42°32' E 003°55'7 9.6
2017-Jul-17 18:12N 42°37' E 003°47'2 9.6
2017-Jul-17 17:59N 42°38' E 003°45'5 9.7
2017-Jul-17 17:30N 42°41' E 003°41'5 9.7
2017-Jul-17 16:59N 42°45' E 003°35'6 9.5
2017-Jul-17 16:19N 42°49' E 003°29'12 9.3
2017-Jul-17 15:05N 42°56' E 003°17'2 9.0
2017-Jul-17 14:52N 42°57' E 003°14'9 2.4
2017-Jul-17 11:08N 43°01' E 003°03'0 0.0
2017-Jul-17 10:56N 43°01' E 003°03'0 0.0
2017-Jul-17 05:08N 43°01' E 003°03'0 0.0
2017-Jul-17 03:08N 43°01' E 003°03'0 0.0
2017-Jul-17 01:08N 43°01' E 003°03'0 0.0
2017-Jul-16 23:08N 43°01' E 003°03'0 0.0
2017-Jul-16 21:08N 43°01' E 003°03'0 0.0
2017-Jul-16 20:53N 43°01' E 003°03'  
2017-Jul-13 18:26N 41°17' E 002°27'4 8.1
2017-Jul-13 17:59N 41°15' E 002°24'4 8.0
2017-Jul-13 17:30N 41°12' E 002°20'4 7.7
2017-Jul-13 17:00N 41°10' E 002°16'611.0
2017-Jul-13 16:30N 41°09' E 002°09'4 8.9
2017-Jul-13 16:00N 41°09' E 002°03'4 8.4
2017-Jul-13 15:30N 41°08' E 001°58'5 9.3
2017-Jul-13 15:00N 41°08' E 001°51'611.1
2017-Jul-13 14:30N 41°07' E 001°44'611.2
2017-Jul-13 14:00N 41°06' E 001°37'611.1
2017-Jul-13 13:30N 41°06' E 001°29'611.0
2017-Jul-13 13:00N 41°05' E 001°22'610.6
2017-Jul-13 12:24N 41°04' E 001°14'2 4.2
2017-Jul-13 12:00N 41°06' E 001°14'0 0.0
2017-Jul-12 20:13N 41°06' E 001°14'0 0.0
2017-Jul-12 19:49N 41°06' E 001°14'0 0.0
2017-Jul-12 19:28N 41°06' E 001°14'0 0.0
2017-Jul-12 18:49N 41°06' E 001°14'0 0.0
2017-Jul-12 18:19N 41°06' E 001°14'0 0.0
2017-Jul-12 17:04N 41°06' E 001°14'0 0.0
2017-Jul-12 16:49N 41°06' E 001°14'0 0.0
2017-Jul-12 16:25N 41°06' E 001°14'0 0.0
2017-Jul-12 14:43N 41°06' E 001°14'0 0.0
2017-Jul-12 13:55N 41°06' E 001°14'0 0.0
2017-Jul-12 13:07N 41°06' E 001°14'0 0.0
2017-Jul-12 12:01N 41°06' E 001°14'0 0.0
2017-Jul-12 08:57N 41°06' E 001°14'3 3.8
2017-Jul-12 08:10N 41°03' E 001°12'5 9.3
2017-Jul-12 07:40N 40°59' E 001°11'410.5
2017-Jul-12 07:17N 40°55' E 001°10'1010.4
2017-Jul-12 06:20N 40°45' E 001°07'510.4
2017-Jul-12 05:49N 40°40' E 001°06'3 9.8
2017-Jul-12 05:30N 40°37' E 001°05'5 9.6
2017-Jul-12 05:00N 40°32' E 001°04'6 9.6
2017-Jul-12 04:22N 40°26' E 001°02'4 9.8
2017-Jul-12 04:00N 40°23' E 001°01'6 9.9
2017-Jul-12 03:26N 40°17' E 000°59'5 9.7
2017-Jul-12 02:57N 40°13' E 000°58'4 9.6
2017-Jul-12 02:30N 40°08' E 000°57'5 9.7
2017-Jul-12 02:00N 40°04' E 000°56'5 9.8
2017-Jul-12 01:27N 39°58' E 000°55'5 9.8
2017-Jul-12 00:55N 39°53' E 000°53'4 9.8
2017-Jul-12 00:30N 39°49' E 000°52'5 9.6
2017-Jul-11 23:57N 39°44' E 000°50'  
Track history (hours):
 
Tides and Currents Weather Stations Pressure Air Temp Water Temp Dewpoint Dewpoint Depression Visibility Wind Speed Wind Dir Waves Ship Positions

Yvonne K.

Last reported at 2017-Jul-21 22:10 UTC. Time now 2017-Jul-22 00:37 UTC.
Position N 42°57' E 003°12'.

Length 90 m; draft 3 m.

Type: Cargo ship. MMSI: 244948000.

Date/timePositionNaut miles runAvg speedWind from/ knotsBaromVisibWave heightAir tempDewpointWater temp
2017-Jul-21 22:10N 42°57' E 003°12'511.1
2017-Jul-21 21:43N 42°54' E 003°17'311.0
2017-Jul-21 21:27N 42°52' E 003°20'511.2
2017-Jul-21 21:00N 42°50' E 003°26'1910.3
2017-Jul-21 19:12N 42°38' E 003°46'210.5
2017-Jul-21 18:59N 42°37' E 003°48'610.7
2017-Jul-21 18:23N 42°33' E 003°55'410.7
2017-Jul-21 18:00N 42°30' E 003°59'510.8
2017-Jul-21 17:30N 42°26' E 004°05'510.5
2017-Jul-21 17:01N 42°23' E 004°10'610.6
2017-Jul-21 16:27N 42°19' E 004°16'510.9
2017-Jul-21 16:00N 42°16' E 004°22'611.0
2017-Jul-21 15:29N 42°13' E 004°28'510.4
2017-Jul-21 15:00N 42°09' E 004°33'510.9
2017-Jul-21 14:31N 42°06' E 004°38'510.9
2017-Jul-21 14:00N 42°02' E 004°44'610.8
2017-Jul-21 13:29N 41°59' E 004°50'710.9
2017-Jul-21 12:52N 41°54' E 004°57'510.9
2017-Jul-21 12:24N 41°51' E 005°02'510.1
2017-Jul-21 11:52N 41°48' E 005°07'511.1
2017-Jul-21 11:25N 41°44' E 005°12'610.2
2017-Jul-21 10:48N 41°40' E 005°19'3 8.3
2017-Jul-21 10:29N 41°39' E 005°21'180 4.3
2017-Jul-19 16:25N 39°52' E 008°33'4 0.2
2017-Jul-18 22:26N 39°51' E 008°28'184 9.5
2017-Jul-18 03:06N 41°42' E 005°15'2 9.4
2017-Jul-18 02:50N 41°44' E 005°13'17 9.6
2017-Jul-18 01:06N 41°55' E 004°56'3 9.8
2017-Jul-18 00:51N 41°56' E 004°53'17 9.6
2017-Jul-17 23:06N 42°07' E 004°36'2 9.7
2017-Jul-17 22:51N 42°09' E 004°33'5 9.6
2017-Jul-17 22:22N 42°12' E 004°28'4 9.5
2017-Jul-17 21:54N 42°14' E 004°24'4 9.5
2017-Jul-17 21:30N 42°17' E 004°20'5 9.3
2017-Jul-17 20:58N 42°20' E 004°15'8 9.4
2017-Jul-17 20:08N 42°25' E 004°07'2 9.6
2017-Jul-17 19:54N 42°26' E 004°04'4 9.6
2017-Jul-17 19:27N 42°29' E 003°60'5 9.6
2017-Jul-17 18:56N 42°32' E 003°55'7 9.6
2017-Jul-17 18:12N 42°37' E 003°47'2 9.6
2017-Jul-17 17:59N 42°38' E 003°45'5 9.7
2017-Jul-17 17:30N 42°41' E 003°41'5 9.7
2017-Jul-17 16:59N 42°45' E 003°35'6 9.5
2017-Jul-17 16:19N 42°49' E 003°29'12 9.3
2017-Jul-17 15:05N 42°56' E 003°17'2 9.0
2017-Jul-17 14:52N 42°57' E 003°14'9 2.4
2017-Jul-17 11:08N 43°01' E 003°03'0 0.0
2017-Jul-17 10:56N 43°01' E 003°03'0 0.0
2017-Jul-17 05:08N 43°01' E 003°03'0 0.0
2017-Jul-17 03:08N 43°01' E 003°03'0 0.0
2017-Jul-17 01:08N 43°01' E 003°03'0 0.0
2017-Jul-16 23:08N 43°01' E 003°03'0 0.0
2017-Jul-16 21:08N 43°01' E 003°03'0 0.0
2017-Jul-16 20:53N 43°01' E 003°03'  
2017-Jul-13 18:26N 41°17' E 002°27'4 8.1
2017-Jul-13 17:59N 41°15' E 002°24'4 8.0
2017-Jul-13 17:30N 41°12' E 002°20'4 7.7
2017-Jul-13 17:00N 41°10' E 002°16'611.0
2017-Jul-13 16:30N 41°09' E 002°09'4 8.9
2017-Jul-13 16:00N 41°09' E 002°03'4 8.4
2017-Jul-13 15:30N 41°08' E 001°58'5 9.3
2017-Jul-13 15:00N 41°08' E 001°51'611.1
2017-Jul-13 14:30N 41°07' E 001°44'611.2
2017-Jul-13 14:00N 41°06' E 001°37'611.1
2017-Jul-13 13:30N 41°06' E 001°29'611.0
2017-Jul-13 13:00N 41°05' E 001°22'610.6
2017-Jul-13 12:24N 41°04' E 001°14'2 4.2
2017-Jul-13 12:00N 41°06' E 001°14'0 0.0
2017-Jul-12 20:13N 41°06' E 001°14'0 0.0
2017-Jul-12 19:49N 41°06' E 001°14'0 0.0
2017-Jul-12 19:28N 41°06' E 001°14'0 0.0
2017-Jul-12 18:49N 41°06' E 001°14'0 0.0
2017-Jul-12 18:19N 41°06' E 001°14'0 0.0
2017-Jul-12 17:04N 41°06' E 001°14'0 0.0
2017-Jul-12 16:49N 41°06' E 001°14'0 0.0
2017-Jul-12 16:25N 41°06' E 001°14'0 0.0
2017-Jul-12 14:43N 41°06' E 001°14'0 0.0
2017-Jul-12 13:55N 41°06' E 001°14'0 0.0
2017-Jul-12 13:07N 41°06' E 001°14'0 0.0
2017-Jul-12 12:01N 41°06' E 001°14'0 0.0
2017-Jul-12 08:57N 41°06' E 001°14'3 3.8
2017-Jul-12 08:10N 41°03' E 001°12'5 9.3
2017-Jul-12 07:40N 40°59' E 001°11'410.5
2017-Jul-12 07:17N 40°55' E 001°10'1010.4
2017-Jul-12 06:20N 40°45' E 001°07'510.4
2017-Jul-12 05:49N 40°40' E 001°06'3 9.8
2017-Jul-12 05:30N 40°37' E 001°05'5 9.6
2017-Jul-12 05:00N 40°32' E 001°04'6 9.6
2017-Jul-12 04:22N 40°26' E 001°02'4 9.8
2017-Jul-12 04:00N 40°23' E 001°01'6 9.9
2017-Jul-12 03:26N 40°17' E 000°59'5 9.7
2017-Jul-12 02:57N 40°13' E 000°58'4 9.6
2017-Jul-12 02:30N 40°08' E 000°57'5 9.7
2017-Jul-12 02:00N 40°04' E 000°56'5 9.8
2017-Jul-12 01:27N 39°58' E 000°55'5 9.8
2017-Jul-12 00:55N 39°53' E 000°53'4 9.8
2017-Jul-12 00:30N 39°49' E 000°52'5 9.6
2017-Jul-11 23:57N 39°44' E 000°50'  

Dump ship's entire track history